Time;durP1;ratioP1;P1;durP2;ratioP2;P2;SDS_P1;SDS_P2;PMS_P1;PMS_P2;Temp;Humidity;BMP_temperature;BMP_pressure;BME280_temperature;BME280_humidity;BME280_pressure;Samples;Min_cycle;Max_cycle;Signal;HPM_P1;HPM_P2
2023/02/22 00:00:55;;;;;;;9.32;6.32;;;;;;;3.29;100.00;95764.69;5034964;28;24529;-75
2023/02/22 00:03:23;;;;;;;11.00;6.47;;;;;;;3.36;100.00;95761.88;5041840;28;25004;-75
2023/02/22 00:05:52;;;;;;;7.40;6.05;;;;;;;3.36;100.00;95764.44;5034081;28;25047;-75
2023/02/22 00:08:20;;;;;;;8.60;6.10;;;;;;;3.30;100.00;95761.25;5043843;28;24530;-75
2023/02/22 00:10:50;;;;;;;8.38;5.50;;;;;;;3.39;100.00;95760.94;5033524;28;24471;-76
2023/02/22 00:13:18;;;;;;;9.13;6.00;;;;;;;3.45;100.00;95762.44;5034872;28;25235;-76
2023/02/22 00:15:45;;;;;;;12.68;7.00;;;;;;;3.53;100.00;95761.31;5033228;28;24458;-75
2023/02/22 00:18:13;;;;;;;12.00;7.90;;;;;;;3.48;100.00;95764.91;5039602;28;24439;-76
2023/02/22 00:20:40;;;;;;;12.35;8.52;;;;;;;3.49;100.00;95762.31;5039881;28;24434;-75
2023/02/22 00:23:09;;;;;;;11.00;7.70;;;;;;;3.50;100.00;95760.56;5034680;28;24969;-75
2023/02/22 00:25:36;;;;;;;12.90;7.78;;;;;;;3.50;100.00;95761.41;5038876;28;24428;-76
2023/02/22 00:28:04;;;;;;;11.60;7.47;;;;;;;3.43;100.00;95751.44;5040575;28;24505;-76
2023/02/22 00:30:32;;;;;;;11.60;7.53;;;;;;;3.39;100.00;95750.72;5036111;28;25007;-76
2023/02/22 00:32:59;;;;;;;11.52;6.30;;;;;;;3.42;100.00;95754.88;5037243;28;24446;-76
2023/02/22 00:35:28;;;;;;;10.13;6.95;;;;;;;3.35;100.00;95749.16;5043639;28;24454;-76
2023/02/22 00:37:56;;;;;;;8.50;6.57;;;;;;;3.26;100.00;95754.56;5038542;28;24497;-76
2023/02/22 00:40:25;;;;;;;10.68;6.68;;;;;;;3.26;100.00;95755.41;5042221;28;24458;-75
2023/02/22 00:42:51;;;;;;;10.20;6.95;;;;;;;3.27;100.00;95748.59;5040371;28;24431;-75
2023/02/22 00:45:21;;;;;;;10.65;6.95;;;;;;;3.27;100.00;95746.84;5041337;28;24435;-75
2023/02/22 00:47:48;;;;;;;8.98;6.57;;;;;;;3.27;100.00;95751.97;5040995;28;25044;-76
2023/02/22 00:50:16;;;;;;;10.63;6.60;;;;;;;3.21;100.00;95744.50;5037726;28;24439;-76
2023/02/22 00:52:43;;;;;;;9.95;6.47;;;;;;;3.18;100.00;95738.63;5036546;28;24439;-76
2023/02/22 00:55:11;;;;;;;9.45;6.40;;;;;;;3.19;100.00;95741.16;5035898;28;24467;-75
2023/02/22 00:57:39;;;;;;;10.07;7.05;;;;;;;3.25;100.00;95737.53;5035844;28;24852;-76
2023/02/22 01:00:11;;;;;;;7.87;6.13;;;;;;;3.26;100.00;95737.47;5037302;28;24442;-76
2023/02/22 01:02:40;;;;;;;10.50;6.70;;;;;;;3.24;100.00;95735.88;5043841;28;24517;-76
2023/02/22 01:05:07;;;;;;;7.80;6.20;;;;;;;3.20;100.00;95731.75;5030174;28;25133;-76
2023/02/22 01:07:34;;;;;;;9.52;6.38;;;;;;;3.15;100.00;95730.19;5043600;28;24447;-76
2023/02/22 01:10:01;;;;;;;8.13;6.30;;;;;;;3.13;100.00;95733.69;5035503;28;24466;-76
2023/02/22 01:12:28;;;;;;;10.37;6.47;;;;;;;3.08;100.00;95728.72;5031594;28;24439;-76
2023/02/22 01:14:55;;;;;;;10.77;5.93;;;;;;;3.11;100.00;95723.47;5041334;28;24463;-76
2023/02/22 01:17:22;;;;;;;18.13;6.03;;;;;;;3.12;100.00;95726.91;5032625;28;24531;-76
2023/02/22 01:19:50;;;;;;;7.30;5.32;;;;;;;3.13;100.00;95723.44;5039471;28;25186;-76
2023/02/22 01:22:17;;;;;;;9.07;6.10;;;;;;;3.13;100.00;95715.78;5029916;28;24438;-76
2023/02/22 01:24:43;;;;;;;6.32;5.47;;;;;;;3.01;100.00;95714.47;5037828;28;24845;-76
2023/02/22 01:27:10;;;;;;;11.30;6.15;;;;;;;3.07;100.00;95718.53;5043157;28;24807;-75
2023/02/22 01:29:38;;;;;;;8.75;5.68;;;;;;;2.92;100.00;95709.66;5033955;28;25047;-76
2023/02/22 01:32:05;;;;;;;11.27;5.80;;;;;;;2.95;100.00;95711.28;5036435;28;24463;-75
2023/02/22 01:34:32;;;;;;;8.45;6.05;;;;;;;3.05;100.00;95703.25;5041327;28;25009;-75
2023/02/22 01:37:01;;;;;;;10.20;6.10;;;;;;;2.83;100.00;95700.59;5042973;28;24537;-74
2023/02/22 01:39:28;;;;;;;10.20;5.97;;;;;;;2.69;100.00;95700.19;5037320;28;24455;-75
2023/02/22 01:41:54;;;;;;;10.18;6.05;;;;;;;2.54;100.00;95696.41;5032711;28;24848;-75
2023/02/22 01:44:27;;;;;;;8.15;5.55;;;;;;;2.48;100.00;95691.50;5034241;28;24976;-75
2023/02/22 01:46:54;;;;;;;7.25;5.53;;;;;;;2.46;100.00;95692.44;5039628;28;24431;-75
2023/02/22 01:49:21;;;;;;;7.53;5.25;;;;;;;2.52;100.00;95687.97;5039015;28;24439;-75
2023/02/22 01:51:51;;;;;;;6.73;5.00;;;;;;;2.47;100.00;95683.88;5040222;28;24498;-76
2023/02/22 01:54:23;;;;;;;9.02;5.97;;;;;;;2.50;100.00;95676.13;5039523;28;24778;-75
2023/02/22 01:56:53;;;;;;;7.97;6.18;;;;;;;2.53;100.00;95669.19;5029628;28;24432;-75
2023/02/22 01:59:21;;;;;;;8.27;5.60;;;;;;;2.61;100.00;95669.78;5032308;28;24436;-74
2023/02/22 02:01:48;;;;;;;9.68;5.50;;;;;;;2.56;100.00;95669.09;5033338;28;25005;-75
2023/02/22 02:04:19;;;;;;;8.02;6.03;;;;;;;2.57;100.00;95663.09;5035750;28;24448;-75
2023/02/22 02:06:47;;;;;;;9.60;5.85;;;;;;;2.64;100.00;95666.28;5031493;28;25012;-76
2023/02/22 02:09:22;;;;;;;11.57;5.82;;;;;;;2.58;100.00;95664.75;5036180;28;24440;-76
2023/02/22 02:11:49;;;;;;;8.37;5.90;;;;;;;2.48;100.00;95658.25;5032829;28;24516;-75
2023/02/22 02:14:17;;;;;;;7.93;5.43;;;;;;;2.56;100.00;95658.00;5037615;28;24527;-76
2023/02/22 02:16:46;;;;;;;7.82;5.40;;;;;;;2.57;100.00;95663.09;5034242;28;24438;-76
2023/02/22 02:19:20;;;;;;;8.50;5.75;;;;;;;2.50;100.00;95653.94;5038530;28;24443;-76
2023/02/22 02:22:26;;;;;;;6.45;5.78;;;;;;;2.45;100.00;95650.72;5034264;28;24443;-75
2023/02/22 02:25:28;;;;;;;8.40;5.80;;;;;;;2.47;100.00;95653.22;5021291;28;24966;-76
2023/02/22 02:28:27;;;;;;;6.87;5.27;;;;;;;2.53;100.00;95643.63;5038656;28;24455;-76
2023/02/22 02:31:12;;;;;;;7.10;5.63;;;;;;;2.52;100.00;95641.09;5033965;28;24451;-74
2023/02/22 02:33:44;;;;;;;6.93;5.45;;;;;;;2.48;100.00;95636.97;5043166;28;24468;-76
2023/02/22 02:36:19;;;;;;;6.95;5.35;;;;;;;2.52;100.00;95641.97;5038843;28;24450;-76
2023/02/22 02:38:54;;;;;;;7.20;5.35;;;;;;;2.59;100.00;95640.00;5037455;28;24463;-76
2023/02/22 02:41:25;;;;;;;6.13;4.82;;;;;;;2.62;100.00;95640.75;5038704;28;24440;-76
2023/02/22 02:43:59;;;;;;;8.85;4.97;;;;;;;2.60;100.00;95634.88;5039300;28;24431;-76
2023/02/22 02:46:31;;;;;;;5.53;4.40;;;;;;;2.63;100.00;95642.44;5036807;28;24447;-75
2023/02/22 02:49:03;;;;;;;6.22;4.65;;;;;;;2.62;100.00;95632.25;5041066;28;24522;-74
2023/02/22 02:51:34;;;;;;;7.20;4.38;;;;;;;2.65;100.00;95625.31;5035822;28;24424;-75
2023/02/22 02:54:03;;;;;;;6.53;4.53;;;;;;;2.63;100.00;95628.78;5041557;28;25011;-75
2023/02/22 02:56:29;;;;;;;8.88;5.43;;;;;;;2.69;100.00;95620.94;5032056;28;24456;-75
2023/02/22 02:58:56;;;;;;;9.60;5.32;;;;;;;2.62;100.00;95625.41;5041271;28;24484;-76
2023/02/22 03:01:41;;;;;;;6.32;4.82;;;;;;;2.65;100.00;95621.91;5035384;28;24432;-75
2023/02/22 03:04:27;;;;;;;11.82;4.35;;;;;;;2.60;100.00;95611.84;5027749;28;24489;-75
2023/02/22 03:07:05;;;;;;;6.43;4.40;;;;;;;2.60;100.00;95623.81;5041126;28;24432;-74
2023/02/22 03:09:41;;;;;;;5.95;4.30;;;;;;;2.59;100.00;95620.41;5038307;28;24514;-75
2023/02/22 03:12:18;;;;;;;6.68;4.10;;;;;;;2.50;100.00;95607.94;5041138;28;24435;-75
2023/02/22 03:14:54;;;;;;;6.13;4.82;;;;;;;2.60;100.00;95611.84;5034301;28;24443;-75
2023/02/22 03:17:28;;;;;;;5.88;4.28;;;;;;;2.56;100.00;95594.97;5038060;28;24468;-75
2023/02/22 03:20:00;;;;;;;7.20;4.60;;;;;;;2.46;100.00;95606.38;5038206;28;24432;-76
2023/02/22 03:22:31;;;;;;;5.72;4.32;;;;;;;2.27;100.00;95600.22;5037518;28;25050;-75
2023/02/22 03:25:07;;;;;;;5.75;4.35;;;;;;;2.24;100.00;95595.19;5032617;28;24455;-76
2023/02/22 03:27:42;;;;;;;5.82;4.88;;;;;;;2.26;100.00;95599.34;5032528;28;24451;-76
2023/02/22 03:30:15;;;;;;;6.20;4.55;;;;;;;2.08;100.00;95593.16;5033878;28;24519;-76
2023/02/22 03:32:47;;;;;;;6.90;4.45;;;;;;;2.02;100.00;95584.84;5036516;28;24439;-76
2023/02/22 03:35:20;;;;;;;4.88;3.70;;;;;;;2.03;100.00;95589.06;5040887;28;24454;-74
2023/02/22 03:37:50;;;;;;;6.78;4.15;;;;;;;2.09;100.00;95592.25;5038589;28;24954;-75
2023/02/22 03:40:25;;;;;;;4.88;4.00;;;;;;;2.13;100.00;95588.72;5041567;28;24436;-74
2023/02/22 03:42:55;;;;;;;5.33;4.10;;;;;;;2.17;100.00;95587.72;5033990;28;24520;-74
2023/02/22 03:45:25;;;;;;;5.63;4.35;;;;;;;2.19;100.00;95592.81;5033441;28;24426;-74
2023/02/22 03:48:00;;;;;;;4.32;3.72;;;;;;;2.18;100.00;95591.94;5038065;28;24447;-74
2023/02/22 03:50:34;;;;;;;7.75;4.03;;;;;;;2.23;100.00;95588.44;5034894;28;24534;-75
2023/02/22 03:53:01;;;;;;;7.00;4.20;;;;;;;2.28;100.00;95589.94;5036817;28;24496;-75
2023/02/22 03:55:30;;;;;;;4.45;3.50;;;;;;;2.29;100.00;95593.31;5042845;28;24447;-75
2023/02/22 03:57:58;;;;;;;3.97;3.42;;;;;;;2.24;100.00;95592.63;5035891;28;24439;-75
2023/02/22 04:00:26;;;;;;;5.87;3.73;;;;;;;2.26;100.00;95584.00;5031143;28;24806;-75
2023/02/22 04:02:53;;;;;;;4.57;3.20;;;;;;;2.31;100.00;95586.44;5046724;28;24428;-75
2023/02/22 04:05:20;;;;;;;4.95;3.28;;;;;;;2.33;100.00;95587.22;5031836;28;24442;-74
2023/02/22 04:07:48;;;;;;;8.40;3.67;;;;;;;2.31;100.00;95578.78;5046245;28;24451;-75
2023/02/22 04:10:15;;;;;;;6.32;3.55;;;;;;;2.30;100.00;95579.66;5039625;28;24997;-75
2023/02/22 04:12:42;;;;;;;5.38;3.28;;;;;;;2.31;100.00;95579.59;5040814;28;24981;-74
2023/02/22 04:15:12;;;;;;;4.32;3.25;;;;;;;2.21;100.00;95583.34;5039002;28;24436;-76
2023/02/22 04:17:38;;;;;;;5.37;3.60;;;;;;;2.10;100.00;95582.88;5038474;28;24850;-75
2023/02/22 04:20:06;;;;;;;7.50;3.47;;;;;;;2.12;100.00;95578.56;5043840;28;25000;-76
2023/02/22 04:22:33;;;;;;;4.50;3.40;;;;;;;2.13;100.00;95577.66;5037911;28;24440;-76
2023/02/22 04:25:00;;;;;;;4.30;3.65;;;;;;;2.13;100.00;95573.38;5044334;28;24446;-75
2023/02/22 04:27:27;;;;;;;4.38;3.60;;;;;;;2.14;100.00;95575.03;5041111;28;24446;-75
2023/02/22 04:29:53;;;;;;;11.13;4.43;;;;;;;2.20;100.00;95570.63;5043631;28;24439;-76
2023/02/22 04:32:20;;;;;;;5.47;3.85;;;;;;;2.20;100.00;95568.09;5041438;28;24431;-74
2023/02/22 04:34:46;;;;;;;5.78;3.80;;;;;;;2.01;100.00;95568.69;5041891;28;24431;-74
2023/02/22 04:37:13;;;;;;;5.53;3.40;;;;;;;1.88;100.00;95559.72;5043811;28;24462;-75
2023/02/22 04:39:39;;;;;;;5.35;4.10;;;;;;;1.84;100.00;95565.81;5041913;28;24455;-76
2023/02/22 04:42:07;;;;;;;5.35;3.70;;;;;;;1.85;100.00;95562.38;5041195;28;24435;-75
2023/02/22 04:44:33;;;;;;;5.25;4.00;;;;;;;1.83;100.00;95567.56;5033639;28;24439;-74
2023/02/22 04:47:00;;;;;;;5.53;3.60;;;;;;;1.85;100.00;95563.22;5036289;28;24436;-75
2023/02/22 04:49:26;;;;;;;6.80;4.10;;;;;;;1.89;100.00;95563.94;5030445;28;24802;-76
2023/02/22 04:51:53;;;;;;;4.70;3.85;;;;;;;1.95;100.00;95563.75;5033966;28;24451;-75
2023/02/22 04:54:19;;;;;;;4.53;3.35;;;;;;;1.93;100.00;95561.28;5029050;28;24452;-74
2023/02/22 04:56:46;;;;;;;3.75;3.33;;;;;;;1.97;100.00;95567.13;5021457;28;24452;-73
2023/02/22 04:59:14;;;;;;;5.35;3.17;;;;;;;1.99;100.00;95565.34;5034974;28;24428;-75
2023/02/22 05:01:40;;;;;;;4.82;3.55;;;;;;;2.00;100.00;95558.50;5035742;28;24989;-75
2023/02/22 05:04:07;;;;;;;5.95;3.45;;;;;;;2.04;100.00;95560.94;5035388;28;24459;-75
2023/02/22 05:06:33;;;;;;;5.38;3.30;;;;;;;2.14;100.00;95558.88;5034022;28;24475;-78
2023/02/22 05:09:00;;;;;;;9.57;4.25;;;;;;;2.14;100.00;95556.34;5028817;28;24443;-76
2023/02/22 05:11:27;;;;;;;4.82;3.25;;;;;;;1.97;100.00;95559.47;5035109;28;24435;-77
2023/02/22 05:13:53;;;;;;;4.70;3.47;;;;;;;1.89;100.00;95556.28;5029905;28;24440;-77
2023/02/22 05:16:21;;;;;;;5.07;3.70;;;;;;;1.82;100.00;95550.56;5040216;28;24456;-77
2023/02/22 05:18:47;;;;;;;4.75;2.95;;;;;;;1.77;100.00;95554.13;5034860;28;24470;-77
2023/02/22 05:21:14;;;;;;;6.03;3.35;;;;;;;1.70;100.00;95550.94;5043427;28;24446;-77
2023/02/22 05:23:41;;;;;;;4.15;3.30;;;;;;;1.76;100.00;95552.47;5032671;28;24435;-76
2023/02/22 05:26:09;;;;;;;6.75;3.70;;;;;;;1.80;100.00;95548.94;5032717;28;24517;-76
2023/02/22 05:28:35;;;;;;;7.60;3.17;;;;;;;1.75;100.00;95549.09;5034079;28;24447;-77
2023/02/22 05:31:02;;;;;;;4.53;3.10;;;;;;;1.79;100.00;95552.38;5048385;28;24451;-78
2023/02/22 05:33:30;;;;;;;4.72;3.35;;;;;;;1.78;100.00;95548.13;5050185;28;24474;-78
2023/02/22 05:35:56;;;;;;;7.80;3.30;;;;;;;1.81;100.00;95548.03;5048210;28;24547;-77
2023/02/22 05:38:23;;;;;;;3.65;3.22;;;;;;;1.82;100.00;95549.75;5042887;28;24447;-78
2023/02/22 05:40:50;;;;;;;5.05;3.47;;;;;;;1.84;100.00;95546.22;5047563;28;24980;-78
2023/02/22 05:43:17;;;;;;;7.07;3.70;;;;;;;1.84;100.00;95543.69;5047666;28;24550;-79
2023/02/22 05:45:44;;;;;;;6.60;3.40;;;;;;;1.78;100.00;95540.47;5046096;28;24444;-78
2023/02/22 05:48:11;;;;;;;5.03;3.90;;;;;;;1.72;100.00;95545.81;5040665;28;24473;-78
2023/02/22 05:50:39;;;;;;;3.95;3.30;;;;;;;1.69;100.00;95544.16;5050451;28;24470;-77
2023/02/22 05:53:06;;;;;;;6.53;3.58;;;;;;;1.72;100.00;95538.13;5050028;28;24446;-77
2023/02/22 05:55:32;;;;;;;6.97;3.70;;;;;;;1.77;100.00;95539.66;5048492;28;24790;-78
2023/02/22 05:58:00;;;;;;;5.10;3.67;;;;;;;1.60;100.00;95542.75;5048614;28;24482;-78
2023/02/22 06:00:29;;;;;;;5.13;3.63;;;;;;;1.60;100.00;95541.91;5036854;28;24446;-78
2023/02/22 06:02:57;;;;;;;6.57;3.40;;;;;;;1.54;100.00;95539.56;5047273;28;24446;-77
2023/02/22 06:05:23;;;;;;;4.47;3.50;;;;;;;1.53;100.00;95538.72;5028150;28;24447;-78
2023/02/22 06:07:51;;;;;;;4.32;3.30;;;;;;;1.50;100.00;95536.25;5041758;28;24443;-78
2023/02/22 06:10:18;;;;;;;4.03;3.40;;;;;;;1.54;100.00;95532.72;5037976;28;24439;-78
2023/02/22 06:12:45;;;;;;;5.27;3.27;;;;;;;1.55;100.00;95536.09;5047061;28;24770;-77
2023/02/22 06:15:12;;;;;;;4.30;3.40;;;;;;;1.59;100.00;95535.13;5037112;28;25015;-74
2023/02/22 06:17:40;;;;;;;4.70;3.10;;;;;;;1.64;100.00;95535.84;5025684;28;24467;-76
2023/02/22 06:20:08;;;;;;;5.45;3.28;;;;;;;1.50;100.00;95541.38;5035844;28;24599;-75
2023/02/22 06:22:34;;;;;;;5.57;3.10;;;;;;;1.34;100.00;95541.00;5024749;28;24455;-76
2023/02/22 06:25:03;;;;;;;7.10;3.50;;;;;;;1.49;100.00;95532.03;5034665;28;24439;-77
2023/02/22 06:27:30;;;;;;;4.85;3.22;;;;;;;1.57;100.00;95536.91;5039043;28;24970;-76
2023/02/22 06:29:57;;;;;;;6.75;4.82;;;;;;;1.73;100.00;95532.97;5041747;28;24438;-76
2023/02/22 06:32:23;;;;;;;7.15;5.05;;;;;;;1.75;100.00;95530.38;5039790;28;24443;-77
2023/02/22 06:34:50;;;;;;;10.60;5.30;;;;;;;1.63;100.00;95546.91;5040786;28;24468;-77
2023/02/22 06:37:16;;;;;;;6.63;5.05;;;;;;;1.47;100.00;95549.09;5043688;28;24467;-78
2023/02/22 06:39:43;;;;;;;10.50;4.97;;;;;;;1.45;100.00;95549.16;5046948;28;25019;-77
2023/02/22 06:42:11;;;;;;;8.15;4.75;;;;;;;1.47;100.00;95551.66;5046237;28;24438;-78
2023/02/22 06:44:37;;;;;;;5.82;4.20;;;;;;;1.53;100.00;95546.38;5040869;28;24431;-77
2023/02/22 06:47:04;;;;;;;7.03;4.22;;;;;;;1.67;100.00;95551.06;5044476;28;24439;-77
2023/02/22 06:49:30;;;;;;;6.03;4.63;;;;;;;1.66;100.00;95557.03;5045703;28;24444;-78
2023/02/22 06:51:56;;;;;;;7.28;4.53;;;;;;;1.67;100.00;95557.00;5039253;28;24443;-75
2023/02/22 06:54:23;;;;;;;5.72;3.97;;;;;;;1.73;100.00;95553.41;5037829;28;24436;-76
2023/02/22 06:56:49;;;;;;;6.80;3.88;;;;;;;1.74;100.00;95565.28;5039409;28;24952;-76
2023/02/22 06:59:17;;;;;;;5.63;3.72;;;;;;;1.70;100.00;95561.16;5040314;28;24439;-76
2023/02/22 07:01:44;;;;;;;6.22;3.38;;;;;;;1.74;100.00;95565.28;5032399;28;24444;-76
2023/02/22 07:04:11;;;;;;;4.55;3.17;;;;;;;1.82;100.00;95562.50;5036873;28;24517;-76
2023/02/22 07:06:37;;;;;;;5.30;3.00;;;;;;;1.83;100.00;95565.00;5032081;28;24514;-76
2023/02/22 07:09:04;;;;;;;5.23;3.40;;;;;;;1.93;100.00;95560.44;5041048;28;24446;-76
2023/02/22 07:11:30;;;;;;;4.53;3.25;;;;;;;2.10;100.00;95568.38;5032542;28;24988;-77
2023/02/22 07:13:57;;;;;;;4.75;3.47;;;;;;;2.13;100.00;95565.72;5044010;28;24435;-77
2023/02/22 07:16:25;;;;;;;5.10;3.10;;;;;;;2.21;100.00;95572.28;5031171;28;24459;-76
2023/02/22 07:18:51;;;;;;;4.25;3.63;;;;;;;2.20;100.00;95574.03;5033844;28;24458;-76
2023/02/22 07:21:18;;;;;;;5.47;3.60;;;;;;;2.28;100.00;95579.72;5034954;28;24442;-76
2023/02/22 07:23:51;;;;;;;8.25;3.75;;;;;;;2.31;100.00;95574.50;5034093;28;24518;-76
2023/02/22 07:26:17;;;;;;;5.68;3.53;;;;;;;2.42;100.00;95571.59;5041293;28;24497;-77
2023/02/22 07:28:43;;;;;;;10.93;3.72;;;;;;;2.55;100.00;95579.66;5043453;28;24455;-74
2023/02/22 07:31:10;;;;;;;5.07;3.50;;;;;;;2.43;100.00;95575.81;5032567;28;24443;-74
2023/02/22 07:33:38;;;;;;;4.65;3.15;;;;;;;2.28;100.00;95577.16;5041763;28;24438;-74
2023/02/22 07:36:05;;;;;;;6.38;3.10;;;;;;;2.38;100.00;95573.41;5034512;28;24440;-74
2023/02/22 07:38:32;;;;;;;4.90;3.22;;;;;;;2.53;100.00;95576.34;5038413;28;25016;-74
2023/02/22 07:40:59;;;;;;;8.77;4.47;;;;;;;2.76;100.00;95570.41;5036288;28;24899;-75
2023/02/22 07:43:26;;;;;;;4.43;3.90;;;;;;;3.00;100.00;95566.94;5034933;28;24445;-75
2023/02/22 07:45:54;;;;;;;10.13;4.38;;;;;;;3.17;100.00;95578.31;5036838;28;25028;-74
2023/02/22 07:48:23;;;;;;;6.82;3.95;;;;;;;3.29;100.00;95576.13;5034937;28;24446;-74
2023/02/22 07:50:51;;;;;;;6.15;3.45;;;;;;;3.27;100.00;95572.81;5039584;28;24444;-74
2023/02/22 07:53:20;;;;;;;5.88;3.45;;;;;;;3.34;100.00;95581.94;5040561;28;24432;-74
2023/02/22 07:55:49;;;;;;;4.97;3.63;;;;;;;3.45;100.00;95573.84;5036497;28;24439;-74
2023/02/22 07:58:18;;;;;;;6.63;3.70;;;;;;;3.57;100.00;95569.97;5041266;28;24459;-77
2023/02/22 08:00:47;;;;;;;6.03;3.60;;;;;;;3.62;100.00;95573.19;5034565;28;24523;-77
2023/02/22 08:03:15;;;;;;;3.35;2.90;;;;;;;3.72;100.00;95571.09;5047318;28;24485;-77
2023/02/22 08:05:46;;;;;;;4.55;3.03;;;;;;;3.66;100.00;95576.47;5029696;28;24435;-77
2023/02/22 08:08:15;;;;;;;5.18;3.15;;;;;;;3.70;100.00;95572.88;5043288;28;24518;-78
2023/02/22 08:10:42;;;;;;;5.00;3.25;;;;;;;3.90;100.00;95564.44;5036977;28;24494;-76
2023/02/22 08:13:09;;;;;;;4.22;3.00;;;;;;;4.02;100.00;95563.94;5046484;28;24443;-77
2023/02/22 08:15:39;;;;;;;5.03;3.08;;;;;;;4.36;100.00;95571.91;5038034;28;24833;-77
2023/02/22 08:18:07;;;;;;;4.32;3.00;;;;;;;4.38;100.00;95565.91;5034219;28;24462;-76
2023/02/22 08:20:35;;;;;;;5.13;3.60;;;;;;;4.59;100.00;95582.91;5038954;28;24447;-75
2023/02/22 08:23:02;;;;;;;4.80;3.30;;;;;;;4.55;100.00;95569.38;5029774;28;24432;-75
2023/02/22 08:25:30;;;;;;;6.85;3.63;;;;;;;4.44;100.00;95571.56;5042120;28;24439;-75
2023/02/22 08:27:59;;;;;;;8.27;3.47;;;;;;;4.55;100.00;95566.00;5043649;28;24829;-75
2023/02/22 08:30:28;;;;;;;6.82;3.55;;;;;;;4.84;100.00;95570.72;5044483;28;24439;-75
2023/02/22 08:32:55;;;;;;;5.97;3.38;;;;;;;4.56;100.00;95572.78;5041077;28;24446;-75
2023/02/22 08:35:22;;;;;;;5.45;3.63;;;;;;;4.40;100.00;95567.47;5044046;28;25001;-76
2023/02/22 08:37:51;;;;;;;9.13;3.97;;;;;;;4.36;100.00;95569.34;5041240;28;24467;-75
2023/02/22 08:40:20;;;;;;;5.50;3.53;;;;;;;4.36;100.00;95566.78;5043729;28;24805;-76
2023/02/22 08:42:48;;;;;;;4.70;3.25;;;;;;;4.49;100.00;95566.28;5037172;28;20768;-75
2023/02/22 08:45:15;;;;;;;7.65;3.45;;;;;;;4.59;100.00;95565.78;5040727;28;24442;-76
2023/02/22 08:47:42;;;;;;;4.17;3.20;;;;;;;4.82;100.00;95569.97;5042175;28;24459;-77
2023/02/22 08:50:11;;;;;;;4.03;3.28;;;;;;;5.21;100.00;95571.66;5037904;28;24439;-77
2023/02/22 08:52:37;;;;;;;5.35;3.28;;;;;;;5.55;100.00;95570.94;5036062;28;24466;-77
2023/02/22 08:55:04;;;;;;;4.50;3.37;;;;;;;5.93;100.00;95560.66;5033059;28;24458;-78
2023/02/22 08:57:31;;;;;;;4.63;3.45;;;;;;;6.36;100.00;95568.84;5035083;28;24802;-77
2023/02/22 08:59:59;;;;;;;5.88;3.42;;;;;;;6.59;100.00;95564.28;5034320;28;24497;-79
2023/02/22 09:02:25;;;;;;;7.80;3.58;;;;;;;6.89;100.00;95567.03;5041020;28;20781;-79
2023/02/22 09:04:52;;;;;;;6.53;3.33;;;;;;;7.22;100.00;95554.16;5040101;28;20772;-79
2023/02/22 09:07:18;;;;;;;5.90;3.60;;;;;;;7.55;100.00;95545.53;5039919;28;20784;-78
2023/02/22 09:09:45;;;;;;;8.60;3.95;;;;;;;7.86;100.00;95544.66;5045368;28;20776;-79
2023/02/22 09:12:12;;;;;;;6.00;3.80;;;;;;;8.03;100.00;95541.16;5040060;28;24442;-77
2023/02/22 09:14:38;;;;;;;4.83;3.60;;;;;;;8.16;100.00;95544.72;5041184;28;24433;-74
2023/02/22 09:17:06;;;;;;;5.72;3.92;;;;;;;7.89;100.00;95549.66;5032406;28;24463;-77
2023/02/22 09:19:32;;;;;;;7.25;3.78;;;;;;;7.70;100.00;95548.09;5032205;28;24989;-76
2023/02/22 09:21:59;;;;;;;6.57;4.30;;;;;;;7.73;100.00;95540.19;5037517;28;24454;-77
2023/02/22 09:24:26;;;;;;;6.30;4.07;;;;;;;7.83;100.00;95537.97;5038834;28;24509;-78
2023/02/22 09:26:53;;;;;;;5.38;4.28;;;;;;;8.09;100.00;95533.91;5038223;28;24439;-77
2023/02/22 09:29:22;;;;;;;8.55;4.40;;;;;;;7.98;100.00;95537.09;5034821;28;24494;-77
2023/02/22 09:31:51;;;;;;;8.30;4.28;;;;;;;8.01;100.00;95538.69;5040780;28;24526;-77
2023/02/22 09:34:19;;;;;;;9.43;4.95;;;;;;;7.89;100.00;95536.78;5034586;28;24439;-77
2023/02/22 09:36:47;;;;;;;10.38;4.70;;;;;;;7.78;100.00;95531.38;5034667;28;20822;-78
2023/02/22 09:39:16;;;;;;;7.90;4.25;;;;;;;7.80;100.00;95532.97;5051039;28;24447;-79
2023/02/22 09:41:51;;;;;;;9.43;5.30;;;;;;;7.81;100.00;95521.72;5053080;28;24798;-78
2023/02/22 09:44:24;;;;;;;11.30;4.70;;;;;;;7.95;100.00;95526.94;5044519;28;24431;-77
2023/02/22 09:46:53;;;;;;;5.78;4.10;;;;;;;8.07;100.00;95522.84;5030707;28;20792;-77
2023/02/22 09:49:26;;;;;;;12.63;4.82;;;;;;;8.21;100.00;95517.72;5030741;28;24887;-77
2023/02/22 09:51:58;;;;;;;10.77;4.97;;;;;;;8.26;100.00;95517.47;5042057;28;24436;-77
2023/02/22 09:54:33;;;;;;;8.48;5.47;;;;;;;8.46;100.00;95519.75;5040194;28;20769;-79
2023/02/22 09:57:03;;;;;;;10.52;5.07;;;;;;;8.72;100.00;95515.66;5046595;28;24501;-80
2023/02/22 09:59:36;;;;;;;8.68;5.00;;;;;;;9.00;100.00;95513.16;5042549;28;24447;-78
2023/02/22 10:02:14;;;;;;;8.27;4.50;;;;;;;9.23;100.00;95522.06;5038140;28;24439;-78
2023/02/22 10:04:47;;;;;;;6.50;4.50;;;;;;;9.30;100.00;95520.78;5042249;28;24438;-79
2023/02/22 10:07:24;;;;;;;8.07;4.32;;;;;;;9.42;100.00;95523.44;5040769;28;24443;-79
2023/02/22 10:09:55;;;;;;;12.93;4.75;;;;;;;9.65;100.00;95521.19;5049337;28;25005;-79
2023/02/22 10:12:29;;;;;;;7.68;3.92;;;;;;;9.73;100.00;95516.34;5036993;28;24446;-77
2023/02/22 10:15:18;;;;;;;6.32;4.10;;;;;;;10.04;100.00;95519.53;5039156;28;24435;-78
2023/02/22 10:17:52;;;;;;;4.43;3.17;;;;;;;10.14;100.00;95523.22;5033561;28;24452;-79
2023/02/22 10:20:36;;;;;;;7.93;4.18;;;;;;;10.11;100.00;95531.16;5040733;28;24439;-80
2023/02/22 10:23:13;;;;;;;6.95;4.00;;;;;;;10.27;100.00;95525.84;5036009;28;24439;-79
2023/02/22 10:25:42;;;;;;;4.68;3.63;;;;;;;10.66;100.00;95525.81;5038629;28;24510;-79
2023/02/22 10:28:15;;;;;;;4.22;3.28;;;;;;;11.63;100.00;95519.97;5045584;28;25312;-79
2023/02/22 10:30:53;;;;;;;4.88;3.35;;;;;;;12.17;93.12;95512.72;5041472;28;24442;-78
2023/02/22 10:33:22;;;;;;;4.90;3.58;;;;;;;12.42;96.26;95506.53;5039110;28;24464;-81
2023/02/22 10:35:52;;;;;;;7.67;3.80;;;;;;;12.62;90.81;95512.88;5042111;28;24521;-79
2023/02/22 10:38:22;;;;;;;4.90;3.40;;;;;;;12.62;88.56;95512.88;5041730;28;24459;-80
2023/02/22 10:40:53;;;;;;;5.35;3.75;;;;;;;12.65;86.70;95513.47;5039029;28;25016;-79
2023/02/22 10:43:20;;;;;;;6.63;3.80;;;;;;;12.87;90.67;95514.41;5045754;28;24444;-81
2023/02/22 10:45:47;;;;;;;5.78;3.67;;;;;;;13.06;88.94;95510.31;5037551;28;25028;-78
2023/02/22 10:48:17;;;;;;;7.55;3.80;;;;;;;13.03;84.29;95499.31;5035086;28;24935;-77
2023/02/22 10:50:45;;;;;;;5.85;3.80;;;;;;;13.02;81.14;95503.69;5032181;28;24494;-78
2023/02/22 10:53:15;;;;;;;8.70;4.00;;;;;;;12.94;82.28;95513.88;5044456;28;24438;-75
2023/02/22 10:56:06;;;;;;;5.40;3.53;;;;;;;13.01;77.85;95506.41;5027365;28;24463;-76
2023/02/22 10:58:41;;;;;;;5.03;3.58;;;;;;;12.96;77.37;95506.75;5036783;28;24865;-77
2023/02/22 11:01:18;;;;;;;6.90;3.70;;;;;;;12.97;78.01;95498.00;5032260;28;24446;-76
2023/02/22 11:03:45;;;;;;;6.05;3.47;;;;;;;12.96;74.76;95498.13;5032131;28;24444;-76
2023/02/22 11:06:20;;;;;;;5.65;3.60;;;;;;;12.79;72.61;95494.22;5035450;28;24435;-76
2023/02/22 11:08:50;;;;;;;9.00;3.70;;;;;;;12.79;77.47;95495.06;5036541;28;24997;-76
2023/02/22 11:11:28;;;;;;;5.53;3.42;;;;;;;12.58;77.98;95496.69;5030190;28;24522;-76
2023/02/22 11:13:55;;;;;;;5.10;3.33;;;;;;;12.80;77.45;95490.69;5034185;28;25070;-76
2023/02/22 11:16:29;;;;;;;6.40;4.57;;;;;;;12.79;80.27;95486.41;5037275;28;24435;-77
2023/02/22 11:19:01;;;;;;;7.80;4.20;;;;;;;12.96;76.94;95490.34;5036267;28;24470;-77
2023/02/22 11:21:30;;;;;;;7.15;3.97;;;;;;;12.49;76.79;95489.56;5035063;28;24434;-77
2023/02/22 11:24:04;;;;;;;5.15;3.78;;;;;;;12.62;82.04;95484.28;5032016;28;24434;-77
2023/02/22 11:26:38;;;;;;;6.53;4.07;;;;;;;12.78;77.59;95487.38;5039381;28;24446;-77
2023/02/22 11:29:11;;;;;;;7.03;3.53;;;;;;;12.58;73.10;95483.69;5035286;28;24439;-77
2023/02/22 11:31:43;;;;;;;7.78;3.80;;;;;;;12.18;74.30;95478.84;5033744;28;24439;-77
2023/02/22 11:34:26;;;;;;;12.73;3.95;;;;;;;12.56;78.40;95468.19;5036929;28;24446;-77
2023/02/22 11:36:53;;;;;;;7.68;4.18;;;;;;;12.22;75.06;95475.09;5033905;28;24586;-77
2023/02/22 11:39:25;;;;;;;8.30;3.83;;;;;;;12.11;74.69;95469.88;5037706;28;24932;-77
2023/02/22 11:41:53;;;;;;;6.75;4.10;;;;;;;12.00;75.78;95465.47;5038822;28;24442;-77